Time;durP1;ratioP1;P1;durP2;ratioP2;P2;SDS_P1;SDS_P2;PMS_P1;PMS_P2;Temp;Humidity;BMP_temperature;BMP_pressure;BME280_temperature;BME280_humidity;BME280_pressure;Samples;Min_cycle;Max_cycle;Signal;HPM_P1;HPM_P2
2023/03/02 00:03:40;;;;;;;132.43;53.67;;;;;;;;;;10375029;28;20644;-85
2023/03/02 00:08:41;;;;;;;133.73;53.43;;;;;;;;;;10392192;28;20432;-86
2023/03/02 00:13:43;;;;;;;123.40;53.23;;;;;;;;;;10383829;28;20056;-87
2023/03/02 00:18:44;;;;;;;129.83;49.63;;;;;;;;;;10377902;28;20079;-86
2023/03/02 00:23:45;;;;;;;111.73;47.87;;;;;;;;;;10397856;28;20501;-86
2023/03/02 00:28:46;;;;;;;122.20;48.73;;;;;;;;;;10406591;28;20036;-86
2023/03/02 00:33:47;;;;;;;117.10;50.00;;;;;;;;;;10387992;28;20037;-86
2023/03/02 00:38:48;;;;;;;114.67;49.07;;;;;;;;;;10406120;28;20110;-86
2023/03/02 00:43:49;;;;;;;107.43;44.93;;;;;;;;;;10404887;28;20053;-86
2023/03/02 00:48:51;;;;;;;104.57;42.63;;;;;;;;;;10383168;28;20036;-87
2023/03/02 00:53:52;;;;;;;103.60;42.40;;;;;;;;;;10407194;28;20057;-86
2023/03/02 00:58:53;;;;;;;99.80;41.50;;;;;;;;;;10392954;28;20029;-86
2023/03/02 01:03:54;;;;;;;95.70;39.60;;;;;;;;;;10379716;28;20065;-86
2023/03/02 01:08:55;;;;;;;90.10;37.57;;;;;;;;;;10401580;28;20030;-86
2023/03/02 01:13:56;;;;;;;95.90;41.43;;;;;;;;;;10399072;28;20500;-86
2023/03/02 01:18:57;;;;;;;96.40;38.83;;;;;;;;;;10383292;28;20100;-86
2023/03/02 01:23:58;;;;;;;92.67;39.63;;;;;;;;;;10394077;28;20045;-86
2023/03/02 01:28:59;;;;;;;83.43;34.07;;;;;;;;;;10396344;28;20092;-86
2023/03/02 01:34:00;;;;;;;90.27;37.00;;;;;;;;;;10385349;28;20029;-87
2023/03/02 01:39:02;;;;;;;84.23;35.63;;;;;;;;;;10401405;28;20591;-86
2023/03/02 01:44:03;;;;;;;86.03;35.30;;;;;;;;;;10386392;28;20040;-86
2023/03/02 01:49:11;;;;;;;85.40;35.07;;;;;;;;;;10372361;28;20029;-86
2023/03/02 01:54:15;;;;;;;83.23;36.50;;;;;;;;;;10393305;28;20049;-87
2023/03/02 01:59:18;;;;;;;80.97;33.53;;;;;;;;;;10403356;28;20042;-86
2023/03/02 02:04:20;;;;;;;82.30;33.10;;;;;;;;;;10376988;28;20034;-87
2023/03/02 02:09:23;;;;;;;79.83;33.13;;;;;;;;;;10399940;28;20409;-87
2023/03/02 02:14:24;;;;;;;79.70;32.17;;;;;;;;;;10379294;28;20091;-86
2023/03/02 02:19:43;;;;;;;86.57;35.73;;;;;;;;;;10378171;28;20041;-86
2023/03/02 02:24:51;;;;;;;80.00;33.70;;;;;;;;;;10388845;28;20041;-86
2023/03/02 02:29:55;;;;;;;93.00;38.97;;;;;;;;;;10388529;28;20682;-86
2023/03/02 02:34:55;;;;;;;91.87;35.17;;;;;;;;;;10388509;28;20396;-86
2023/03/02 02:39:57;;;;;;;87.70;36.13;;;;;;;;;;10390304;28;20102;-87
2023/03/02 02:44:58;;;;;;;89.07;37.47;;;;;;;;;;10387185;28;20049;-86
2023/03/02 02:49:59;;;;;;;82.57;35.27;;;;;;;;;;10389171;28;20549;-86
2023/03/02 02:55:01;;;;;;;81.17;36.87;;;;;;;;;;10374615;28;20055;-87
2023/03/02 03:00:05;;;;;;;94.53;42.33;;;;;;;;;;10386058;28;20137;-87
2023/03/02 03:05:09;;;;;;;99.93;40.33;;;;;;;;;;10395671;28;20113;-87
2023/03/02 03:10:13;;;;;;;90.53;39.20;;;;;;;;;;10386365;28;20484;-87
2023/03/02 03:15:15;;;;;;;89.93;35.53;;;;;;;;;;10400398;28;20106;-86
2023/03/02 03:20:16;;;;;;;87.40;38.87;;;;;;;;;;10368007;28;20708;-87
2023/03/02 03:25:17;;;;;;;86.33;37.20;;;;;;;;;;10394302;28;20041;-88
2023/03/02 03:30:18;;;;;;;84.60;35.37;;;;;;;;;;10391695;28;20124;-87
2023/03/02 03:35:19;;;;;;;89.00;37.67;;;;;;;;;;10375470;28;20037;-87
2023/03/02 03:40:20;;;;;;;85.97;34.30;;;;;;;;;;10383467;28;20497;-86
2023/03/02 03:45:21;;;;;;;84.43;36.33;;;;;;;;;;10387363;28;20036;-87
2023/03/02 03:50:22;;;;;;;88.03;34.80;;;;;;;;;;10388092;28;20124;-86
2023/03/02 03:55:27;;;;;;;83.33;36.80;;;;;;;;;;10376058;28;20050;-86
2023/03/02 04:00:28;;;;;;;82.50;35.97;;;;;;;;;;10384626;28;20500;-85
2023/03/02 04:05:29;;;;;;;82.73;34.17;;;;;;;;;;10364515;28;20098;-86
2023/03/02 04:10:30;;;;;;;74.80;33.00;;;;;;;;;;10388913;28;20547;-88
2023/03/02 04:15:31;;;;;;;76.87;33.27;;;;;;;;;;10383365;28;20117;-89
2023/03/02 04:20:32;;;;;;;75.23;35.43;;;;;;;;;;10391528;28;20037;-89
2023/03/02 04:25:33;;;;;;;83.13;35.40;;;;;;;;;;10380579;28;20034;-87
2023/03/02 04:30:34;;;;;;;83.67;35.90;;;;;;;;;;10385176;28;20030;-87
2023/03/02 04:35:35;;;;;;;84.43;36.47;;;;;;;;;;10400498;28;20105;-87
2023/03/02 04:40:36;;;;;;;77.07;35.63;;;;;;;;;;10411739;28;20029;-86
2023/03/02 04:45:38;;;;;;;87.83;38.33;;;;;;;;;;10372284;28;20385;-86
2023/03/02 04:50:39;;;;;;;84.03;36.77;;;;;;;;;;10360773;28;20918;-87
2023/03/02 04:55:41;;;;;;;76.97;33.73;;;;;;;;;;10357460;28;20037;-85
2023/03/02 05:00:42;;;;;;;79.87;33.60;;;;;;;;;;10378868;28;20046;-86
2023/03/02 05:05:43;;;;;;;85.13;37.53;;;;;;;;;;10376960;28;20041;-86
2023/03/02 05:10:44;;;;;;;86.13;36.13;;;;;;;;;;10406171;28;20078;-87
2023/03/02 05:15:45;;;;;;;73.80;32.63;;;;;;;;;;10389224;28;20142;-83
2023/03/02 05:20:46;;;;;;;87.07;36.43;;;;;;;;;;10365384;28;20048;-85
2023/03/02 05:25:47;;;;;;;85.23;36.47;;;;;;;;;;10376964;28;20038;-84
2023/03/02 05:30:48;;;;;;;94.30;39.17;;;;;;;;;;10375343;28;20025;-84
2023/03/02 05:35:49;;;;;;;81.93;35.67;;;;;;;;;;10404651;28;20022;-84
2023/03/02 05:40:50;;;;;;;85.87;34.93;;;;;;;;;;10405269;28;20496;-83
2023/03/02 05:45:51;;;;;;;97.30;40.67;;;;;;;;;;10405251;28;20033;-84
2023/03/02 05:50:52;;;;;;;83.20;35.90;;;;;;;;;;10385012;28;20029;-83
2023/03/02 05:55:53;;;;;;;75.90;34.70;;;;;;;;;;10404796;28;20054;-84
2023/03/02 06:00:54;;;;;;;89.50;38.27;;;;;;;;;;10404058;28;20038;-84
2023/03/02 06:05:55;;;;;;;103.07;46.70;;;;;;;;;;10404047;28;20033;-84
2023/03/02 06:10:56;;;;;;;93.73;40.20;;;;;;;;;;10402774;28;20477;-83
2023/03/02 06:15:57;;;;;;;86.83;38.77;;;;;;;;;;10402419;28;20045;-85
2023/03/02 06:20:58;;;;;;;90.77;38.60;;;;;;;;;;10403532;28;20112;-84
2023/03/02 06:26:00;;;;;;;81.93;35.97;;;;;;;;;;10401612;28;20928;-85
2023/03/02 06:31:00;;;;;;;79.17;35.07;;;;;;;;;;10404691;28;20029;-84
2023/03/02 06:36:01;;;;;;;85.77;35.00;;;;;;;;;;10403934;28;20743;-84
2023/03/02 06:41:03;;;;;;;85.97;35.87;;;;;;;;;;10402803;28;20045;-83
2023/03/02 06:46:04;;;;;;;95.03;43.67;;;;;;;;;;10402871;28;20028;-84
2023/03/02 06:51:06;;;;;;;73.27;34.07;;;;;;;;;;10389139;28;20060;-83
2023/03/02 06:56:07;;;;;;;71.47;32.20;;;;;;;;;;10389110;28;20053;-83
2023/03/02 07:01:08;;;;;;;75.43;32.23;;;;;;;;;;10390997;28;20041;-84
2023/03/02 07:06:11;;;;;;;70.43;30.47;;;;;;;;;;10402665;28;20017;-83
2023/03/02 07:11:12;;;;;;;59.70;26.90;;;;;;;;;;10403223;28;20032;-84
2023/03/02 07:16:13;;;;;;;59.63;26.43;;;;;;;;;;10402435;28;20042;-83
2023/03/02 07:21:14;;;;;;;57.03;26.00;;;;;;;;;;10401968;28;20116;-83
2023/03/02 07:26:15;;;;;;;58.27;26.73;;;;;;;;;;10399556;28;20052;-83
2023/03/02 07:31:16;;;;;;;55.13;26.43;;;;;;;;;;10401904;28;20033;-83
2023/03/02 07:36:17;;;;;;;59.73;27.80;;;;;;;;;;10410090;28;20052;-83
2023/03/02 07:41:18;;;;;;;54.93;26.47;;;;;;;;;;10409160;28;20034;-83
2023/03/02 07:46:19;;;;;;;57.77;28.10;;;;;;;;;;10409864;28;20343;-84
2023/03/02 07:51:20;;;;;;;69.50;30.37;;;;;;;;;;10383465;28;20036;-83
2023/03/02 07:56:21;;;;;;;69.00;32.83;;;;;;;;;;10409687;28;20069;-84
2023/03/02 08:01:22;;;;;;;104.53;46.70;;;;;;;;;;10409033;28;20064;-83
2023/03/02 08:06:23;;;;;;;78.70;36.40;;;;;;;;;;10409341;28;20018;-84
2023/03/02 08:11:24;;;;;;;72.60;32.40;;;;;;;;;;10409013;28;20026;-82
2023/03/02 08:16:26;;;;;;;72.40;35.63;;;;;;;;;;10408512;28;20025;-83
2023/03/02 08:21:28;;;;;;;87.17;44.50;;;;;;;;;;10398877;28;20038;-83
2023/03/02 08:26:29;;;;;;;92.80;47.90;;;;;;;;;;10405292;28;20362;-85
2023/03/02 08:31:30;;;;;;;87.70;39.93;;;;;;;;;;10407795;28;20033;-83
2023/03/02 08:36:31;;;;;;;83.63;38.83;;;;;;;;;;10408329;28;20037;-83
2023/03/02 08:41:33;;;;;;;72.53;34.83;;;;;;;;;;10406819;28;20034;-83
2023/03/02 08:46:34;;;;;;;79.03;39.47;;;;;;;;;;10407868;28;20033;-83
2023/03/02 08:51:35;;;;;;;69.73;33.10;;;;;;;;;;10406950;28;20033;-83
2023/03/02 08:56:38;;;;;;;57.73;28.17;;;;;;;;;;10406172;28;20053;-83
2023/03/02 09:01:39;;;;;;;64.17;28.40;;;;;;;;;;10406989;28;20048;-83
2023/03/02 09:06:41;;;;;;;43.93;21.27;;;;;;;;;;10406837;28;20041;-82
2023/03/02 09:11:43;;;;;;;49.17;23.67;;;;;;;;;;10407065;28;20041;-83
2023/03/02 09:16:45;;;;;;;59.50;32.37;;;;;;;;;;10406378;28;20021;-83
2023/03/02 09:21:46;;;;;;;42.90;22.97;;;;;;;;;;10393740;28;20467;-83
2023/03/02 09:26:47;;;;;;;45.20;24.10;;;;;;;;;;10391707;28;20489;-83
2023/03/02 09:31:48;;;;;;;43.90;22.03;;;;;;;;;;10403783;28;20112;-83
2023/03/02 09:36:49;;;;;;;43.53;24.80;;;;;;;;;;10393007;28;20026;-83
2023/03/02 09:41:56;;;;;;;40.43;19.87;;;;;;;;;;10405200;28;20381;-83
2023/03/02 09:47:03;;;;;;;32.97;17.67;;;;;;;;;;10405458;28;20504;-83
2023/03/02 09:52:23;;;;;;;34.27;17.23;;;;;;;;;;10405858;28;20079;-83
2023/03/02 09:57:26;;;;;;;36.60;18.83;;;;;;;;;;10402937;28;20422;-84
2023/03/02 10:02:35;;;;;;;35.30;18.67;;;;;;;;;;10404918;28;20064;-84
2023/03/02 10:07:37;;;;;;;37.93;19.27;;;;;;;;;;10353809;28;20089;-83
2023/03/02 10:12:58;;;;;;;45.67;21.27;;;;;;;;;;10353016;28;20037;-81
2023/03/02 10:18:19;;;;;;;40.93;21.23;;;;;;;;;;10348594;28;20030;-84
2023/03/02 10:23:27;;;;;;;40.23;21.07;;;;;;;;;;10353211;28;20049;-84
2023/03/02 10:28:32;;;;;;;35.53;18.90;;;;;;;;;;10333688;28;20046;-83
2023/03/02 10:33:35;;;;;;;33.70;17.87;;;;;;;;;;10350362;28;20449;-83
2023/03/02 10:38:36;;;;;;;32.00;17.07;;;;;;;;;;10357722;28;20109;-83
2023/03/02 10:43:50;;;;;;;39.87;20.10;;;;;;;;;;10361163;28;20045;-82
2023/03/02 10:48:52;;;;;;;34.07;18.40;;;;;;;;;;10359354;28;20486;-82
2023/03/02 10:54:04;;;;;;;33.43;17.17;;;;;;;;;;10349167;28;20053;-83
2023/03/02 10:59:28;;;;;;;28.00;15.43;;;;;;;;;;10341998;28;20129;-82
2023/03/02 11:04:30;;;;;;;30.33;15.80;;;;;;;;;;10361504;28;20136;-82
2023/03/02 11:09:31;;;;;;;32.77;15.73;;;;;;;;;;10350470;28;20039;-83
2023/03/02 11:14:33;;;;;;;30.33;16.97;;;;;;;;;;10331290;28;20601;-83
2023/03/02 11:19:38;;;;;;;27.08;14.40;;;;;;;;;;10356189;28;20393;-83
2023/03/02 11:24:42;;;;;;;26.40;14.68;;;;;;;;;;10384342;28;20463;-83
2023/03/02 11:29:45;;;;;;;28.10;14.27;;;;;;;;;;10376981;28;20406;-83
2023/03/02 11:34:49;;;;;;;26.42;13.55;;;;;;;;;;10371352;28;20052;-84
2023/03/02 11:39:50;;;;;;;24.52;13.35;;;;;;;;;;10372207;28;20042;-84
2023/03/02 11:44:51;;;;;;;22.25;12.13;;;;;;;;;;10366151;28;20080;-83
2023/03/02 11:49:57;;;;;;;24.80;12.43;;;;;;;;;;10369271;28;20134;-84
2023/03/02 11:55:04;;;;;;;24.80;13.00;;;;;;;;;;10367419;28;20058;-84
2023/03/02 12:00:11;;;;;;;23.67;12.88;;;;;;;;;;10366873;28;20041;-84
2023/03/02 12:05:23;;;;;;;28.30;14.07;;;;;;;;;;10375108;28;20819;-83
2023/03/02 12:10:30;;;;;;;29.35;13.88;;;;;;;;;;10366823;28;20030;-83
2023/03/02 12:15:36;;;;;;;24.30;13.50;;;;;;;;;;10385979;28;20030;-84
2023/03/02 12:20:40;;;;;;;25.08;13.65;;;;;;;;;;10377974;28;20042;-83
2023/03/02 12:25:50;;;;;;;28.40;13.30;;;;;;;;;;10403324;28;20057;-83
2023/03/02 12:31:02;;;;;;;24.38;13.70;;;;;;;;;;10380136;28;20030;-82
2023/03/02 12:36:04;;;;;;;25.85;13.68;;;;;;;;;;10390289;28;20048;-82
2023/03/02 12:41:16;;;;;;;28.42;14.05;;;;;;;;;;10404977;28;20033;-83
2023/03/02 12:46:30;;;;;;;29.55;13.73;;;;;;;;;;10407626;28;20044;-83
2023/03/02 12:51:33;;;;;;;22.33;12.38;;;;;;;;;;10405715;28;20033;-83
2023/03/02 12:56:34;;;;;;;23.75;11.13;;;;;;;;;;10407050;28;20099;-83
2023/03/02 13:01:35;;;;;;;21.48;11.77;;;;;;;;;;10406958;28;20452;-83
2023/03/02 13:06:38;;;;;;;23.27;11.50;;;;;;;;;;10386177;28;20026;-84
2023/03/02 13:11:39;;;;;;;21.27;11.57;;;;;;;;;;10399492;28;21588;-83
2023/03/02 13:16:40;;;;;;;21.20;11.52;;;;;;;;;;10391474;28;20037;-83
2023/03/02 13:21:41;;;;;;;20.88;11.07;;;;;;;;;;10354918;28;20548;-83
2023/03/02 13:26:42;;;;;;;18.58;10.35;;;;;;;;;;10397434;28;20041;-84
2023/03/02 13:31:43;;;;;;;25.08;10.65;;;;;;;;;;10363778;28;20059;-83
2023/03/02 13:36:44;;;;;;;19.33;10.10;;;;;;;;;;10372768;28;20033;-82
2023/03/02 13:41:52;;;;;;;43.38;17.83;;;;;;;;;;10404899;28;20041;-83
2023/03/02 13:46:53;;;;;;;18.95;10.55;;;;;;;;;;10351551;28;20034;-84
2023/03/02 13:52:06;;;;;;;18.70;9.68;;;;;;;;;;10372558;28;20037;-85
2023/03/02 13:57:07;;;;;;;18.17;9.97;;;;;;;;;;10397591;28;20056;-83
2023/03/02 14:02:20;;;;;;;18.23;9.17;;;;;;;;;;10400154;28;20087;-83
2023/03/02 14:07:21;;;;;;;19.42;9.88;;;;;;;;;;10383512;28;20037;-82
2023/03/02 14:12:24;;;;;;;19.33;9.57;;;;;;;;;;10402622;28;20040;-83
2023/03/02 14:17:25;;;;;;;18.23;9.07;;;;;;;;;;10389294;28;20067;-83
2023/03/02 14:22:29;;;;;;;19.23;9.37;;;;;;;;;;10359467;28;20397;-82
2023/03/02 14:27:30;;;;;;;18.80;9.10;;;;;;;;;;10376540;28;20798;-83
2023/03/02 14:32:31;;;;;;;16.90;9.13;;;;;;;;;;10359651;28;20032;-81
2023/03/02 14:37:32;;;;;;;18.90;9.75;;;;;;;;;;10386484;28;20045;-83
2023/03/02 14:42:33;;;;;;;26.67;15.83;;;;;;;;;;10377011;28;20809;-83
2023/03/02 14:47:34;;;;;;;17.70;9.40;;;;;;;;;;10388630;28;20039;-83
2023/03/02 14:52:37;;;;;;;16.57;9.07;;;;;;;;;;10386776;28;20045;-83
2023/03/02 14:57:39;;;;;;;20.40;9.90;;;;;;;;;;10386606;28;20085;-84
2023/03/02 15:02:40;;;;;;;28.90;16.83;;;;;;;;;;10375924;28;20068;-83
2023/03/02 15:07:41;;;;;;;17.30;8.37;;;;;;;;;;10395353;28;20041;-84
2023/03/02 15:12:42;;;;;;;16.00;8.10;;;;;;;;;;10386247;28;20047;-81
2023/03/02 15:17:43;;;;;;;17.33;8.43;;;;;;;;;;10368015;28;20041;-83
2023/03/02 15:22:44;;;;;;;18.93;9.30;;;;;;;;;;10364389;28;20499;-84
2023/03/02 15:27:45;;;;;;;17.10;9.00;;;;;;;;;;10358551;28;20231;-83
2023/03/02 15:32:46;;;;;;;26.73;13.67;;;;;;;;;;10357938;28;20056;-83
2023/03/02 15:37:47;;;;;;;24.30;11.23;;;;;;;;;;10376350;28;20038;-83
2023/03/02 15:42:48;;;;;;;24.97;12.33;;;;;;;;;;10370769;28;20038;-83
2023/03/02 15:47:49;;;;;;;20.33;10.90;;;;;;;;;;10351743;28;20426;-83
2023/03/02 15:52:50;;;;;;;23.87;12.20;;;;;;;;;;10362367;28;20041;-82
2023/03/02 15:57:52;;;;;;;21.10;9.67;;;;;;;;;;10378029;28;20053;-82
2023/03/02 16:02:53;;;;;;;21.43;10.57;;;;;;;;;;10365165;28;20124;-84
2023/03/02 16:07:54;;;;;;;19.27;9.50;;;;;;;;;;10389905;28;20481;-84
2023/03/02 16:12:55;;;;;;;19.73;9.80;;;;;;;;;;10372004;28;20038;-84
2023/03/02 16:17:56;;;;;;;18.70;9.73;;;;;;;;;;10371676;28;20025;-83
2023/03/02 16:23:00;;;;;;;23.40;10.40;;;;;;;;;;10377407;28;20037;-84
2023/03/02 16:28:04;;;;;;;23.20;11.93;;;;;;;;;;10370046;28;20073;-84
2023/03/02 16:33:06;;;;;;;34.10;16.40;;;;;;;;;;10365155;28;20034;-84
2023/03/02 16:38:08;;;;;;;37.97;17.53;;;;;;;;;;10367512;28;20061;-84
2023/03/02 16:43:09;;;;;;;36.37;18.13;;;;;;;;;;10365647;28;20059;-83
2023/03/02 16:48:11;;;;;;;45.40;22.90;;;;;;;;;;10365978;28;20432;-85
2023/03/02 16:53:12;;;;;;;43.37;21.70;;;;;;;;;;10363702;28;20036;-84
2023/03/02 16:58:13;;;;;;;51.90;23.70;;;;;;;;;;10364404;28;21223;-83
2023/03/02 17:03:14;;;;;;;53.70;22.53;;;;;;;;;;10359947;28;20034;-84
2023/03/02 17:08:16;;;;;;;55.07;25.67;;;;;;;;;;10359595;28;20045;-82
2023/03/02 17:13:17;;;;;;;62.60;27.70;;;;;;;;;;10364772;28;20185;-82
2023/03/02 17:18:18;;;;;;;55.73;27.23;;;;;;;;;;10360126;28;20121;-83
2023/03/02 17:23:20;;;;;;;57.13;27.50;;;;;;;;;;10364938;28;20366;-84
2023/03/02 17:28:21;;;;;;;67.53;31.50;;;;;;;;;;10363468;28;20030;-84
2023/03/02 17:33:22;;;;;;;63.67;29.33;;;;;;;;;;10360196;28;20416;-82
2023/03/02 17:38:23;;;;;;;64.10;29.97;;;;;;;;;;10351805;28;20033;-82
2023/03/02 17:43:24;;;;;;;57.83;29.77;;;;;;;;;;10357874;28;20393;-82
2023/03/02 17:48:25;;;;;;;77.67;36.57;;;;;;;;;;10364282;28;20630;-83
2023/03/02 17:53:26;;;;;;;93.10;43.67;;;;;;;;;;10351888;28;20484;-83
2023/03/02 17:58:28;;;;;;;94.40;46.10;;;;;;;;;;10395172;28;20409;-83
2023/03/02 18:03:29;;;;;;;86.00;43.03;;;;;;;;;;10374407;28;20045;-83
2023/03/02 18:08:31;;;;;;;92.30;43.67;;;;;;;;;;10373549;28;20030;-83
2023/03/02 18:13:33;;;;;;;85.00;38.73;;;;;;;;;;10380601;28;20488;-83
2023/03/02 18:18:34;;;;;;;84.13;39.17;;;;;;;;;;10375904;28;20075;-81
2023/03/02 18:23:35;;;;;;;90.87;41.97;;;;;;;;;;10353295;28;20788;-82
2023/03/02 18:28:36;;;;;;;87.63;40.80;;;;;;;;;;10356179;28;20037;-82
2023/03/02 18:33:37;;;;;;;93.07;41.77;;;;;;;;;;10361782;28;20033;-82
2023/03/02 18:38:38;;;;;;;92.00;42.07;;;;;;;;;;10357596;28;20034;-83
2023/03/02 18:43:40;;;;;;;77.73;38.37;;;;;;;;;;10357985;28;20045;-82
2023/03/02 18:48:41;;;;;;;81.23;37.57;;;;;;;;;;10385444;28;20029;-81
2023/03/02 18:53:42;;;;;;;78.07;36.50;;;;;;;;;;10371000;28;20037;-82
2023/03/02 18:58:44;;;;;;;72.27;33.57;;;;;;;;;;10357699;28;20616;-83
2023/03/02 19:03:45;;;;;;;88.40;40.23;;;;;;;;;;10359491;28;20034;-83
2023/03/02 19:08:47;;;;;;;119.17;54.50;;;;;;;;;;10360899;28;20143;-84
2023/03/02 19:13:48;;;;;;;112.43;52.67;;;;;;;;;;10361043;28;20087;-85
2023/03/02 19:18:49;;;;;;;109.13;51.83;;;;;;;;;;10358058;28;20069;-84
2023/03/02 19:23:50;;;;;;;106.53;51.70;;;;;;;;;;10359706;28;20041;-84
2023/03/02 19:28:51;;;;;;;112.87;50.07;;;;;;;;;;10360173;28;20509;-82
2023/03/02 19:33:53;;;;;;;100.00;44.73;;;;;;;;;;10368645;28;20084;-82
2023/03/02 19:38:54;;;;;;;107.63;48.20;;;;;;;;;;10368852;28;20040;-82
2023/03/02 19:43:55;;;;;;;99.73;46.03;;;;;;;;;;10368605;28;20041;-82
2023/03/02 19:48:56;;;;;;;101.87;46.43;;;;;;;;;;10385323;28;20370;-82
2023/03/02 19:53:57;;;;;;;101.90;48.20;;;;;;;;;;10385430;28;20050;-83
2023/03/02 19:58:59;;;;;;;100.80;47.93;;;;;;;;;;10378250;28;20037;-81
2023/03/02 20:04:00;;;;;;;120.23;54.53;;;;;;;;;;10379952;28;20380;-82
2023/03/02 20:09:03;;;;;;;133.87;61.03;;;;;;;;;;10377305;28;20371;-83
2023/03/02 20:14:04;;;;;;;138.87;62.17;;;;;;;;;;10393364;28;20029;-84
2023/03/02 20:19:05;;;;;;;135.10;61.63;;;;;;;;;;10381550;28;20691;-84
2023/03/02 20:24:06;;;;;;;154.60;68.73;;;;;;;;;;10401100;28;20584;-82
2023/03/02 20:29:08;;;;;;;142.63;64.17;;;;;;;;;;10397619;28;20038;-82
2023/03/02 20:34:10;;;;;;;157.40;69.40;;;;;;;;;;10390288;28;20040;-83
2023/03/02 20:39:20;;;;;;;130.40;61.30;;;;;;;;;;10405047;28;20046;-83
2023/03/02 20:44:22;;;;;;;145.67;66.37;;;;;;;;;;10397999;28;20477;-82
2023/03/02 20:49:23;;;;;;;146.97;60.03;;;;;;;;;;10390935;28;20037;-83
2023/03/02 20:54:26;;;;;;;130.80;59.00;;;;;;;;;;10397672;28;20548;-83
2023/03/02 20:59:28;;;;;;;132.07;55.53;;;;;;;;;;10396829;28;20057;-82
2023/03/02 21:04:29;;;;;;;130.20;53.93;;;;;;;;;;10388595;28;20073;-82
2023/03/02 21:09:30;;;;;;;132.60;56.90;;;;;;;;;;10397903;28;20030;-82
2023/03/02 21:14:32;;;;;;;126.93;54.57;;;;;;;;;;10399604;28;20111;-81
2023/03/02 21:19:33;;;;;;;120.47;52.87;;;;;;;;;;10387319;28;20033;-82
2023/03/02 21:24:34;;;;;;;118.13;52.80;;;;;;;;;;10396467;28;20025;-82
2023/03/02 21:29:35;;;;;;;130.97;53.97;;;;;;;;;;10391651;28;20025;-82
2023/03/02 21:34:36;;;;;;;130.57;56.73;;;;;;;;;;10393602;28;20109;-82
2023/03/02 21:39:37;;;;;;;130.47;52.33;;;;;;;;;;10391954;28;20362;-82
2023/03/02 21:44:38;;;;;;;126.73;54.70;;;;;;;;;;10391983;28;20732;-82
2023/03/02 21:49:39;;;;;;;129.43;53.40;;;;;;;;;;10382954;28;20041;-82
2023/03/02 21:54:40;;;;;;;116.63;51.10;;;;;;;;;;10382952;28;20056;-82
2023/03/02 21:59:41;;;;;;;117.30;49.63;;;;;;;;;;10394102;28;20610;-82
2023/03/02 22:04:42;;;;;;;120.07;49.57;;;;;;;;;;10390403;28;20034;-83
2023/03/02 22:09:43;;;;;;;110.23;50.00;;;;;;;;;;10386862;28;20039;-82
2023/03/02 22:14:44;;;;;;;122.73;48.97;;;;;;;;;;10377908;28;20717;-84
2023/03/02 22:19:45;;;;;;;109.03;47.00;;;;;;;;;;10389042;28;20142;-82
2023/03/02 22:24:48;;;;;;;101.67;44.80;;;;;;;;;;10391653;28;20041;-82
2023/03/02 22:29:49;;;;;;;104.67;47.20;;;;;;;;;;10388303;28;20497;-82
2023/03/02 22:34:57;;;;;;;98.70;44.20;;;;;;;;;;10383545;28;20068;-82
2023/03/02 22:40:01;;;;;;;102.60;45.37;;;;;;;;;;10394113;28;20032;-83
2023/03/02 22:45:13;;;;;;;103.93;46.67;;;;;;;;;;10377368;28;20052;-83
2023/03/02 22:50:21;;;;;;;96.30;42.80;;;;;;;;;;10397703;28;20044;-82
2023/03/02 22:55:42;;;;;;;97.40;43.97;;;;;;;;;;10379927;28;20045;-84
2023/03/02 23:00:43;;;;;;;103.73;47.13;;;;;;;;;;10372098;28;20661;-84
2023/03/02 23:05:47;;;;;;;100.07;44.13;;;;;;;;;;10378179;28;20596;-84
2023/03/02 23:10:49;;;;;;;96.83;41.40;;;;;;;;;;10380533;28;20127;-83
2023/03/02 23:15:51;;;;;;;98.47;43.13;;;;;;;;;;10365430;28;20038;-84
2023/03/02 23:20:52;;;;;;;100.90;44.47;;;;;;;;;;10393688;28;20060;-84
2023/03/02 23:25:53;;;;;;;96.30;45.33;;;;;;;;;;10379800;28;20497;-84
2023/03/02 23:30:54;;;;;;;94.97;42.80;;;;;;;;;;10383983;28;20137;-84
2023/03/02 23:35:55;;;;;;;112.33;50.27;;;;;;;;;;10387972;28;20029;-84
2023/03/02 23:40:56;;;;;;;104.07;44.80;;;;;;;;;;10393923;28;20038;-84
2023/03/02 23:45:57;;;;;;;117.33;51.83;;;;;;;;;;10391956;28;20551;-84
2023/03/02 23:51:00;;;;;;;109.10;47.30;;;;;;;;;;10389930;28;20404;-84
2023/03/02 23:56:01;;;;;;;114.53;49.97;;;;;;;;;;10386599;28;20136;-84
